sensor_id;sensor_type;location;lat;lon;timestamp;temperature;humidity
46340;DHT22;47273;49.274;8.708;2023-02-17T05:00:01;11.20;99.90
46340;DHT22;47273;49.274;8.708;2023-02-17T05:02:28;11.10;99.90
46340;DHT22;47273;49.274;8.708;2023-02-17T05:04:55;11.10;99.90
46340;DHT22;47273;49.274;8.708;2023-02-17T05:07:21;11.10;99.90
46340;DHT22;47273;49.274;8.708;2023-02-17T05:09:47;11.10;99.90
46340;DHT22;47273;49.274;8.708;2023-02-17T05:12:12;11.10;99.90
46340;DHT22;47273;49.274;8.708;2023-02-17T05:14:38;11.10;99.90
46340;DHT22;47273;49.274;8.708;2023-02-17T05:17:04;11.10;99.90
46340;DHT22;47273;49.274;8.708;2023-02-17T05:19:30;11.10;99.90
46340;DHT22;47273;49.274;8.708;2023-02-17T05:21:56;11.10;99.90
46340;DHT22;47273;49.274;8.708;2023-02-17T05:24:22;11.20;99.90
46340;DHT22;47273;49.274;8.708;2023-02-17T05:26:47;11.20;99.90
46340;DHT22;47273;49.274;8.708;2023-02-17T05:29:13;11.10;99.90
46340;DHT22;47273;49.274;8.708;2023-02-17T05:31:39;11.10;99.90
46340;DHT22;47273;49.274;8.708;2023-02-17T05:34:04;11.10;99.90
46340;DHT22;47273;49.274;8.708;2023-02-17T05:36:30;11.10;99.90
46340;DHT22;47273;49.274;8.708;2023-02-17T05:38:56;11.10;99.90
46340;DHT22;47273;49.274;8.708;2023-02-17T05:41:21;11.10;99.90
46340;DHT22;47273;49.274;8.708;2023-02-17T05:43:47;11.10;99.90
46340;DHT22;47273;49.274;8.708;2023-02-17T05:46:13;11.10;99.90
46340;DHT22;47273;49.274;8.708;2023-02-17T05:48:39;11.10;99.90
46340;DHT22;47273;49.274;8.708;2023-02-17T05:51:05;11.10;99.90
46340;DHT22;47273;49.274;8.708;2023-02-17T05:53:31;11.10;99.90
46340;DHT22;47273;49.274;8.708;2023-02-17T05:55:59;11.10;99.90
46340;DHT22;47273;49.274;8.708;2023-02-17T05:58:25;11.10;99.90
46340;DHT22;47273;49.274;8.708;2023-02-17T06:00:51;11.10;99.90
46340;DHT22;47273;49.274;8.708;2023-02-17T06:03:17;11.10;99.90
46340;DHT22;47273;49.274;8.708;2023-02-17T06:05:44;11.10;99.90
46340;DHT22;47273;49.274;8.708;2023-02-17T06:08:09;11.10;99.90
46340;DHT22;47273;49.274;8.708;2023-02-17T06:10:35;11.10;99.90
46340;DHT22;47273;49.274;8.708;2023-02-17T06:13:01;11.10;99.90
46340;DHT22;47273;49.274;8.708;2023-02-17T06:15:26;11.00;99.90
46340;DHT22;47273;49.274;8.708;2023-02-17T06:17:52;11.10;99.90
46340;DHT22;47273;49.274;8.708;2023-02-17T06:20:18;11.00;99.90
46340;DHT22;47273;49.274;8.708;2023-02-17T06:22:43;11.00;99.90
46340;DHT22;47273;49.274;8.708;2023-02-17T06:25:09;11.00;99.90
46340;DHT22;47273;49.274;8.708;2023-02-17T06:27:35;11.00;99.90
46340;DHT22;47273;49.274;8.708;2023-02-17T06:30:00;11.00;99.90
46340;DHT22;47273;49.274;8.708;2023-02-17T06:32:26;11.00;99.90
46340;DHT22;47273;49.274;8.708;2023-02-17T06:34:52;11.00;99.90
46340;DHT22;47273;49.274;8.708;2023-02-17T06:37:18;11.00;99.90
46340;DHT22;47273;49.274;8.708;2023-02-17T06:39:43;11.00;99.90
46340;DHT22;47273;49.274;8.708;2023-02-17T06:42:09;11.00;99.90
46340;DHT22;47273;49.274;8.708;2023-02-17T06:44:35;11.00;99.90
46340;DHT22;47273;49.274;8.708;2023-02-17T06:47:00;11.00;99.90
46340;DHT22;47273;49.274;8.708;2023-02-17T06:49:26;11.00;99.90
46340;DHT22;47273;49.274;8.708;2023-02-17T06:51:52;11.00;99.90
46340;DHT22;47273;49.274;8.708;2023-02-17T06:54:17;11.00;99.90
46340;DHT22;47273;49.274;8.708;2023-02-17T06:56:43;11.00;99.90
46340;DHT22;47273;49.274;8.708;2023-02-17T06:59:09;11.10;99.90
46340;DHT22;47273;49.274;8.708;2023-02-17T07:01:34;11.10;99.90
46340;DHT22;47273;49.274;8.708;2023-02-17T07:04:00;11.10;99.90
46340;DHT22;47273;49.274;8.708;2023-02-17T07:06:26;11.10;99.90
46340;DHT22;47273;49.274;8.708;2023-02-17T07:08:51;11.00;99.90
46340;DHT22;47273;49.274;8.708;2023-02-17T07:11:18;11.10;99.90
46340;DHT22;47273;49.274;8.708;2023-02-17T07:13:44;11.10;99.90
46340;DHT22;47273;49.274;8.708;2023-02-17T07:16:12;11.10;99.90
46340;DHT22;47273;49.274;8.708;2023-02-17T07:18:38;11.10;99.90
46340;DHT22;47273;49.274;8.708;2023-02-17T07:21:04;11.10;99.90
46340;DHT22;47273;49.274;8.708;2023-02-17T07:23:30;11.10;99.90
46340;DHT22;47273;49.274;8.708;2023-02-17T07:26:00;11.10;99.90
46340;DHT22;47273;49.274;8.708;2023-02-17T07:28:25;11.10;99.90
46340;DHT22;47273;49.274;8.708;2023-02-17T07:30:51;11.10;99.90
46340;DHT22;47273;49.274;8.708;2023-02-17T07:33:16;11.10;99.90
46340;DHT22;47273;49.274;8.708;2023-02-17T07:35:42;11.10;99.90
46340;DHT22;47273;49.274;8.708;2023-02-17T07:38:11;11.10;99.90
46340;DHT22;47273;49.274;8.708;2023-02-17T07:40:37;11.10;99.90
46340;DHT22;47273;49.274;8.708;2023-02-17T07:43:03;11.10;99.90
46340;DHT22;47273;49.274;8.708;2023-02-17T07:45:29;11.10;99.90
46340;DHT22;47273;49.274;8.708;2023-02-17T07:47:55;11.10;99.90
46340;DHT22;47273;49.274;8.708;2023-02-17T07:50:23;11.10;99.90
46340;DHT22;47273;49.274;8.708;2023-02-17T07:52:49;11.10;99.90
46340;DHT22;47273;49.274;8.708;2023-02-17T07:55:15;11.10;99.90
46340;DHT22;47273;49.274;8.708;2023-02-17T07:57:44;11.20;99.90
46340;DHT22;47273;49.274;8.708;2023-02-17T08:00:10;11.20;99.90
46340;DHT22;47273;49.274;8.708;2023-02-17T08:02:36;11.20;99.90
46340;DHT22;47273;49.274;8.708;2023-02-17T08:05:01;11.10;99.90
46340;DHT22;47273;49.274;8.708;2023-02-17T08:07:28;11.20;99.90
46340;DHT22;47273;49.274;8.708;2023-02-17T08:09:58;11.20;99.90
46340;DHT22;47273;49.274;8.708;2023-02-17T08:12:43;11.20;99.90
46340;DHT22;47273;49.274;8.708;2023-02-17T08:15:27;11.20;99.90
46340;DHT22;47273;49.274;8.708;2023-02-17T08:17:53;11.20;99.90
46340;DHT22;47273;49.274;8.708;2023-02-17T08:20:18;11.20;99.90
46340;DHT22;47273;49.274;8.708;2023-02-17T08:22:44;11.20;99.90
46340;DHT22;47273;49.274;8.708;2023-02-17T08:25:10;11.20;99.90
46340;DHT22;47273;49.274;8.708;2023-02-17T08:27:35;11.20;99.90
46340;DHT22;47273;49.274;8.708;2023-02-17T08:30:01;11.20;99.90
46340;DHT22;47273;49.274;8.708;2023-02-17T08:32:27;11.20;99.90
46340;DHT22;47273;49.274;8.708;2023-02-17T08:34:56;11.20;99.90
46340;DHT22;47273;49.274;8.708;2023-02-17T08:37:22;11.30;99.90
46340;DHT22;47273;49.274;8.708;2023-02-17T08:39:48;11.20;99.90
46340;DHT22;47273;49.274;8.708;2023-02-17T08:42:13;11.20;99.90
46340;DHT22;47273;49.274;8.708;2023-02-17T08:44:39;11.30;99.90
46340;DHT22;47273;49.274;8.708;2023-02-17T08:47:05;11.20;99.90
46340;DHT22;47273;49.274;8.708;2023-02-17T08:49:31;11.30;99.90
46340;DHT22;47273;49.274;8.708;2023-02-17T08:51:57;11.30;99.90
46340;DHT22;47273;49.274;8.708;2023-02-17T08:54:23;11.30;99.90
46340;DHT22;47273;49.274;8.708;2023-02-17T08:56:49;11.30;99.90
46340;DHT22;47273;49.274;8.708;2023-02-17T08:59:15;11.30;99.90
46340;DHT22;47273;49.274;8.708;2023-02-17T09:01:41;11.30;99.90
46340;DHT22;47273;49.274;8.708;2023-02-17T09:04:08;11.30;99.90
46340;DHT22;47273;49.274;8.708;2023-02-17T09:06:39;11.30;99.90
46340;DHT22;47273;49.274;8.708;2023-02-17T09:09:07;11.30;99.90
46340;DHT22;47273;49.274;8.708;2023-02-17T09:11:34;11.30;99.90
46340;DHT22;47273;49.274;8.708;2023-02-17T09:13:59;11.30;99.90
46340;DHT22;47273;49.274;8.708;2023-02-17T09:16:25;11.30;99.90
46340;DHT22;47273;49.274;8.708;2023-02-17T09:18:52;11.30;99.90
46340;DHT22;47273;49.274;8.708;2023-02-17T09:21:18;11.30;99.90
46340;DHT22;47273;49.274;8.708;2023-02-17T09:23:44;11.30;99.90
46340;DHT22;47273;49.274;8.708;2023-02-17T09:26:12;11.30;99.90
46340;DHT22;47273;49.274;8.708;2023-02-17T09:28:38;11.30;99.90
46340;DHT22;47273;49.274;8.708;2023-02-17T09:31:18;11.30;99.90
46340;DHT22;47273;49.274;8.708;2023-02-17T09:33:45;11.30;99.90
46340;DHT22;47273;49.274;8.708;2023-02-17T09:36:14;11.30;99.90
46340;DHT22;47273;49.274;8.708;2023-02-17T09:38:40;11.30;99.90
46340;DHT22;47273;49.274;8.708;2023-02-17T09:41:25;11.30;99.90
46340;DHT22;47273;49.274;8.708;2023-02-17T09:43:52;11.30;99.90
46340;DHT22;47273;49.274;8.708;2023-02-17T09:46:35;11.30;99.90
46340;DHT22;47273;49.274;8.708;2023-02-17T09:49:14;11.30;99.90
46340;DHT22;47273;49.274;8.708;2023-02-17T09:51:46;11.20;99.90
46340;DHT22;47273;49.274;8.708;2023-02-17T09:54:34;11.30;99.90
46340;DHT22;47273;49.274;8.708;2023-02-17T09:57:02;11.30;99.90
46340;DHT22;47273;49.274;8.708;2023-02-17T10:00:08;11.30;99.90
46340;DHT22;47273;49.274;8.708;2023-02-17T10:03:14;11.20;99.90
46340;DHT22;47273;49.274;8.708;2023-02-17T10:05:55;11.30;99.90
46340;DHT22;47273;49.274;8.708;2023-02-17T10:08:29;11.30;99.90
46340;DHT22;47273;49.274;8.708;2023-02-17T10:11:17;11.30;99.90
46340;DHT22;47273;49.274;8.708;2023-02-17T10:13:45;11.30;99.90
46340;DHT22;47273;49.274;8.708;2023-02-17T10:16:20;11.40;99.90
46340;DHT22;47273;49.274;8.708;2023-02-17T10:19:17;11.40;99.90
46340;DHT22;47273;49.274;8.708;2023-02-17T10:21:50;11.40;99.90
46340;DHT22;47273;49.274;8.708;2023-02-17T10:24:20;11.40;99.90
46340;DHT22;47273;49.274;8.708;2023-02-17T10:37:35;11.60;99.90
46340;DHT22;47273;49.274;8.708;2023-02-17T10:40:07;11.60;99.90
46340;DHT22;47273;49.274;8.708;2023-02-17T10:42:35;11.60;99.90
46340;DHT22;47273;49.274;8.708;2023-02-17T10:45:03;11.60;99.90
46340;DHT22;47273;49.274;8.708;2023-02-17T10:47:30;11.70;99.90
46340;DHT22;47273;49.274;8.708;2023-02-17T10:49:57;11.70;99.90
46340;DHT22;47273;49.274;8.708;2023-02-17T10:52:37;11.70;99.90
46340;DHT22;47273;49.274;8.708;2023-02-17T10:57:58;11.70;99.90
46340;DHT22;47273;49.274;8.708;2023-02-17T11:00:30;11.70;99.90
46340;DHT22;47273;49.274;8.708;2023-02-17T11:02:56;11.80;99.90
46340;DHT22;47273;49.274;8.708;2023-02-17T11:07:55;11.90;99.90
46340;DHT22;47273;49.274;8.708;2023-02-17T11:10:34;11.90;99.90
46340;DHT22;47273;49.274;8.708;2023-02-17T11:13:00;11.80;99.90
46340;DHT22;47273;49.274;8.708;2023-02-17T11:15:36;11.80;99.90
46340;DHT22;47273;49.274;8.708;2023-02-17T11:18:15;11.80;99.90
46340;DHT22;47273;49.274;8.708;2023-02-17T11:20:42;11.80;99.90
46340;DHT22;47273;49.274;8.708;2023-02-17T11:25:41;11.90;99.90
46340;DHT22;47273;49.274;8.708;2023-02-17T11:28:21;11.90;99.90
46340;DHT22;47273;49.274;8.708;2023-02-17T11:30:51;11.90;99.90
46340;DHT22;47273;49.274;8.708;2023-02-17T11:33:23;11.90;99.90
46340;DHT22;47273;49.274;8.708;2023-02-17T11:35:53;11.90;99.90
46340;DHT22;47273;49.274;8.708;2023-02-17T11:38:39;11.90;99.90
46340;DHT22;47273;49.274;8.708;2023-02-17T11:41:06;11.90;99.90
46340;DHT22;47273;49.274;8.708;2023-02-17T11:43:33;11.90;99.90
46340;DHT22;47273;49.274;8.708;2023-02-17T11:46:22;12.00;99.90
46340;DHT22;47273;49.274;8.708;2023-02-17T11:56:51;12.10;99.90
46340;DHT22;47273;49.274;8.708;2023-02-17T11:59:31;12.00;99.90
46340;DHT22;47273;49.274;8.708;2023-02-17T12:24:04;12.10;99.90
46340;DHT22;47273;49.274;8.708;2023-02-17T12:26:45;12.10;99.90
46340;DHT22;47273;49.274;8.708;2023-02-17T12:34:30;12.10;99.90
46340;DHT22;47273;49.274;8.708;2023-02-17T12:36:59;12.10;99.90
46340;DHT22;47273;49.274;8.708;2023-02-17T12:39:40;12.10;99.90
46340;DHT22;47273;49.274;8.708;2023-02-17T12:42:15;12.10;99.90
46340;DHT22;47273;49.274;8.708;2023-02-17T12:44:46;12.10;99.90
46340;DHT22;47273;49.274;8.708;2023-02-17T12:50:53;12.10;99.90
46340;DHT22;47273;49.274;8.708;2023-02-17T12:53:33;12.10;99.90
46340;DHT22;47273;49.274;8.708;2023-02-17T12:56:02;12.10;99.90
46340;DHT22;47273;49.274;8.708;2023-02-17T12:58:32;12.20;99.90
46340;DHT22;47273;49.274;8.708;2023-02-17T13:01:08;12.20;99.90
46340;DHT22;47273;49.274;8.708;2023-02-17T13:03:35;12.30;99.90
46340;DHT22;47273;49.274;8.708;2023-02-17T13:06:23;12.20;99.90
46340;DHT22;47273;49.274;8.708;2023-02-17T13:11:53;12.20;99.90
46340;DHT22;47273;49.274;8.708;2023-02-17T13:14:41;12.30;99.90
46340;DHT22;47273;49.274;8.708;2023-02-17T13:19:47;12.30;99.90
46340;DHT22;47273;49.274;8.708;2023-02-17T13:22:21;12.30;99.90
46340;DHT22;47273;49.274;8.708;2023-02-17T13:24:53;12.30;99.90
46340;DHT22;47273;49.274;8.708;2023-02-17T13:32:35;12.40;99.90
46340;DHT22;47273;49.274;8.708;2023-02-17T13:35:05;12.40;99.90
46340;DHT22;47273;49.274;8.708;2023-02-17T13:39:58;12.50;99.90
46340;DHT22;47273;49.274;8.708;2023-02-17T13:42:56;12.60;99.90
46340;DHT22;47273;49.274;8.708;2023-02-17T13:45:47;12.60;99.90
46340;DHT22;47273;49.274;8.708;2023-02-17T13:48:27;12.70;99.90
46340;DHT22;47273;49.274;8.708;2023-02-17T13:50:57;12.70;99.90
46340;DHT22;47273;49.274;8.708;2023-02-17T13:53:24;12.70;99.90
46340;DHT22;47273;49.274;8.708;2023-02-17T13:55:51;12.80;99.90
46340;DHT22;47273;49.274;8.708;2023-02-17T13:58:22;12.80;99.90
46340;DHT22;47273;49.274;8.708;2023-02-17T14:00:48;12.80;99.90
46340;DHT22;47273;49.274;8.708;2023-02-17T14:03:26;12.80;99.90
46340;DHT22;47273;49.274;8.708;2023-02-17T14:05:55;12.80;99.90
46340;DHT22;47273;49.274;8.708;2023-02-17T14:08:41;12.80;99.90
46340;DHT22;47273;49.274;8.708;2023-02-17T14:11:12;12.70;99.90
46340;DHT22;47273;49.274;8.708;2023-02-17T14:13:41;12.80;99.90
46340;DHT22;47273;49.274;8.708;2023-02-17T14:16:31;12.70;99.90
46340;DHT22;47273;49.274;8.708;2023-02-17T14:19:17;12.80;99.90
46340;DHT22;47273;49.274;8.708;2023-02-17T14:21:57;12.80;99.90
46340;DHT22;47273;49.274;8.708;2023-02-17T14:24:27;12.70;99.90
46340;DHT22;47273;49.274;8.708;2023-02-17T14:27:02;12.70;99.90
46340;DHT22;47273;49.274;8.708;2023-02-17T14:29:47;12.70;99.90
46340;DHT22;47273;49.274;8.708;2023-02-17T14:32:32;12.70;99.90
46340;DHT22;47273;49.274;8.708;2023-02-17T14:37:41;12.70;99.90
46340;DHT22;47273;49.274;8.708;2023-02-17T14:40:15;12.80;99.90
46340;DHT22;47273;49.274;8.708;2023-02-17T14:42:42;12.80;99.90
46340;DHT22;47273;49.274;8.708;2023-02-17T14:45:08;12.70;99.90
46340;DHT22;47273;49.274;8.708;2023-02-17T14:47:34;12.80;99.90
46340;DHT22;47273;49.274;8.708;2023-02-17T14:49:59;12.80;99.90
46340;DHT22;47273;49.274;8.708;2023-02-17T14:52:25;12.80;99.90
46340;DHT22;47273;49.274;8.708;2023-02-17T14:54:51;12.80;99.90
46340;DHT22;47273;49.274;8.708;2023-02-17T14:57:18;12.80;99.90
46340;DHT22;47273;49.274;8.708;2023-02-17T14:59:48;12.80;99.90
46340;DHT22;47273;49.274;8.708;2023-02-17T15:02:16;12.90;99.90
46340;DHT22;47273;49.274;8.708;2023-02-17T15:04:42;12.80;99.90
46340;DHT22;47273;49.274;8.708;2023-02-17T15:07:17;12.80;99.90
46340;DHT22;47273;49.274;8.708;2023-02-17T15:09:44;12.80;99.90
46340;DHT22;47273;49.274;8.708;2023-02-17T15:12:17;12.80;99.90
46340;DHT22;47273;49.274;8.708;2023-02-17T15:14:44;12.80;99.90
46340;DHT22;47273;49.274;8.708;2023-02-17T15:17:11;12.80;99.90
46340;DHT22;47273;49.274;8.708;2023-02-17T15:19:37;12.80;99.90
46340;DHT22;47273;49.274;8.708;2023-02-17T15:22:04;12.80;99.90
46340;DHT22;47273;49.274;8.708;2023-02-17T15:24:33;12.80;99.90
46340;DHT22;47273;49.274;8.708;2023-02-17T15:27:00;12.80;99.90
46340;DHT22;47273;49.274;8.708;2023-02-17T15:29:26;12.80;99.90
46340;DHT22;47273;49.274;8.708;2023-02-17T15:31:54;12.80;99.90
46340;DHT22;47273;49.274;8.708;2023-02-17T15:34:29;12.80;99.90
46340;DHT22;47273;49.274;8.708;2023-02-17T15:36:56;12.80;99.90
46340;DHT22;47273;49.274;8.708;2023-02-17T15:39:22;12.80;99.90
46340;DHT22;47273;49.274;8.708;2023-02-17T15:41:48;12.80;99.90
46340;DHT22;47273;49.274;8.708;2023-02-17T15:44:19;12.80;99.90
46340;DHT22;47273;49.274;8.708;2023-02-17T15:46:48;12.70;99.90
46340;DHT22;47273;49.274;8.708;2023-02-17T15:49:14;12.80;99.90
46340;DHT22;47273;49.274;8.708;2023-02-17T15:51:40;12.80;99.90
46340;DHT22;47273;49.274;8.708;2023-02-17T15:54:05;12.80;99.90
46340;DHT22;47273;49.274;8.708;2023-02-17T15:56:41;12.80;99.90
46340;DHT22;47273;49.274;8.708;2023-02-17T15:59:15;12.80;99.90
46340;DHT22;47273;49.274;8.708;2023-02-17T16:01:42;12.80;99.90
46340;DHT22;47273;49.274;8.708;2023-02-17T16:04:09;12.80;99.90
46340;DHT22;47273;49.274;8.708;2023-02-17T16:06:36;12.80;99.90
46340;DHT22;47273;49.274;8.708;2023-02-17T16:09:02;12.80;99.90
46340;DHT22;47273;49.274;8.708;2023-02-17T16:11:28;12.80;99.90
46340;DHT22;47273;49.274;8.708;2023-02-17T16:13:54;12.80;99.90
46340;DHT22;47273;49.274;8.708;2023-02-17T16:16:30;12.80;99.90
46340;DHT22;47273;49.274;8.708;2023-02-17T16:18:58;12.80;99.90
46340;DHT22;47273;49.274;8.708;2023-02-17T16:21:23;12.80;99.90
46340;DHT22;47273;49.274;8.708;2023-02-17T16:23:49;12.80;99.90
46340;DHT22;47273;49.274;8.708;2023-02-17T16:26:32;12.80;99.90
46340;DHT22;47273;49.274;8.708;2023-02-17T16:29:00;12.80;99.90
46340;DHT22;47273;49.274;8.708;2023-02-17T16:31:30;12.80;99.90
46340;DHT22;47273;49.274;8.708;2023-02-17T16:33:56;12.80;99.90
46340;DHT22;47273;49.274;8.708;2023-02-17T16:36:25;12.80;99.90
46340;DHT22;47273;49.274;8.708;2023-02-17T16:38:54;12.80;99.90
46340;DHT22;47273;49.274;8.708;2023-02-17T16:41:19;12.80;99.90
46340;DHT22;47273;49.274;8.708;2023-02-17T16:43:46;12.80;99.90
46340;DHT22;47273;49.274;8.708;2023-02-17T16:46:23;12.80;99.90
46340;DHT22;47273;49.274;8.708;2023-02-17T16:48:52;12.70;99.90
46340;DHT22;47273;49.274;8.708;2023-02-17T16:51:18;12.70;99.90
46340;DHT22;47273;49.274;8.708;2023-02-17T16:53:43;12.70;99.90
46340;DHT22;47273;49.274;8.708;2023-02-17T16:56:35;12.70;99.90
46340;DHT22;47273;49.274;8.708;2023-02-17T16:59:03;12.70;99.90
46340;DHT22;47273;49.274;8.708;2023-02-17T17:01:29;12.70;99.90
46340;DHT22;47273;49.274;8.708;2023-02-17T17:03:56;12.70;99.90
46340;DHT22;47273;49.274;8.708;2023-02-17T17:06:27;12.70;99.90
46340;DHT22;47273;49.274;8.708;2023-02-17T17:08:54;12.70;99.90
46340;DHT22;47273;49.274;8.708;2023-02-17T17:11:23;12.70;99.90
46340;DHT22;47273;49.274;8.708;2023-02-17T17:13:49;12.60;99.90
46340;DHT22;47273;49.274;8.708;2023-02-17T17:16:19;12.60;99.90
46340;DHT22;47273;49.274;8.708;2023-02-17T17:18:46;12.60;99.90
46340;DHT22;47273;49.274;8.708;2023-02-17T17:21:14;12.60;99.90
46340;DHT22;47273;49.274;8.708;2023-02-17T17:23:40;12.60;99.90
46340;DHT22;47273;49.274;8.708;2023-02-17T17:26:25;12.60;99.90
46340;DHT22;47273;49.274;8.708;2023-02-17T17:28:51;12.60;99.90
46340;DHT22;47273;49.274;8.708;2023-02-17T17:31:18;12.60;99.90
46340;DHT22;47273;49.274;8.708;2023-02-17T17:33:45;12.60;99.90
46340;DHT22;47273;49.274;8.708;2023-02-17T17:36:18;12.60;99.90
46340;DHT22;47273;49.274;8.708;2023-02-17T17:38:46;12.60;99.90
46340;DHT22;47273;49.274;8.708;2023-02-17T17:41:13;12.60;99.90
46340;DHT22;47273;49.274;8.708;2023-02-17T17:43:39;12.60;99.90
46340;DHT22;47273;49.274;8.708;2023-02-17T17:46:19;12.50;99.90
46340;DHT22;47273;49.274;8.708;2023-02-17T17:48:46;12.50;99.90
46340;DHT22;47273;49.274;8.708;2023-02-17T17:51:14;12.50;99.90
46340;DHT22;47273;49.274;8.708;2023-02-17T17:53:41;12.50;99.90
46340;DHT22;47273;49.274;8.708;2023-02-17T17:56:14;12.50;99.90
46340;DHT22;47273;49.274;8.708;2023-02-17T17:58:41;12.50;99.90
46340;DHT22;47273;49.274;8.708;2023-02-17T18:01:06;12.50;99.90
46340;DHT22;47273;49.274;8.708;2023-02-17T18:03:32;12.50;99.90
46340;DHT22;47273;49.274;8.708;2023-02-17T18:05:58;12.40;99.90
46340;DHT22;47273;49.274;8.708;2023-02-17T18:08:24;12.40;99.90
46340;DHT22;47273;49.274;8.708;2023-02-17T18:10:50;12.40;99.90
46340;DHT22;47273;49.274;8.708;2023-02-17T18:13:15;12.40;99.90
46340;DHT22;47273;49.274;8.708;2023-02-17T18:15:42;12.40;99.90
46340;DHT22;47273;49.274;8.708;2023-02-17T18:18:08;12.30;99.90
46340;DHT22;47273;49.274;8.708;2023-02-17T18:20:35;12.40;99.90
46340;DHT22;47273;49.274;8.708;2023-02-17T18:23:01;12.30;99.90
46340;DHT22;47273;49.274;8.708;2023-02-17T18:25:26;12.30;99.90
46340;DHT22;47273;49.274;8.708;2023-02-17T18:27:52;12.40;99.90
46340;DHT22;47273;49.274;8.708;2023-02-17T18:30:19;12.30;99.90
46340;DHT22;47273;49.274;8.708;2023-02-17T18:32:46;12.30;99.90
46340;DHT22;47273;49.274;8.708;2023-02-17T18:35:12;12.30;99.90
46340;DHT22;47273;49.274;8.708;2023-02-17T18:37:41;12.30;99.90
46340;DHT22;47273;49.274;8.708;2023-02-17T18:40:12;12.30;99.90
46340;DHT22;47273;49.274;8.708;2023-02-17T18:42:40;12.30;99.90
46340;DHT22;47273;49.274;8.708;2023-02-17T18:45:09;12.30;99.90
46340;DHT22;47273;49.274;8.708;2023-02-17T18:47:37;12.30;99.90
46340;DHT22;47273;49.274;8.708;2023-02-17T18:50:04;12.30;99.90
46340;DHT22;47273;49.274;8.708;2023-02-17T18:52:30;12.20;99.90
46340;DHT22;47273;49.274;8.708;2023-02-17T18:54:55;12.20;99.90
46340;DHT22;47273;49.274;8.708;2023-02-17T18:57:21;12.20;99.90
46340;DHT22;47273;49.274;8.708;2023-02-17T18:59:47;12.20;99.90
46340;DHT22;47273;49.274;8.708;2023-02-17T19:02:15;12.20;99.90
46340;DHT22;47273;49.274;8.708;2023-02-17T19:04:41;12.20;99.90
46340;DHT22;47273;49.274;8.708;2023-02-17T19:07:07;12.20;99.90
46340;DHT22;47273;49.274;8.708;2023-02-17T19:09:38;12.20;99.90
46340;DHT22;47273;49.274;8.708;2023-02-17T19:12:04;12.10;99.90
46340;DHT22;47273;49.274;8.708;2023-02-17T19:14:34;12.10;99.90
46340;DHT22;47273;49.274;8.708;2023-02-17T19:17:01;12.10;99.90
46340;DHT22;47273;49.274;8.708;2023-02-17T19:19:27;12.10;99.90
46340;DHT22;47273;49.274;8.708;2023-02-17T19:21:54;12.10;99.90
46340;DHT22;47273;49.274;8.708;2023-02-17T19:24:20;12.10;99.90
46340;DHT22;47273;49.274;8.708;2023-02-17T19:26:45;12.10;99.90
46340;DHT22;47273;49.274;8.708;2023-02-17T19:29:11;12.10;99.90
46340;DHT22;47273;49.274;8.708;2023-02-17T19:31:37;12.10;99.90
46340;DHT22;47273;49.274;8.708;2023-02-17T19:34:02;12.10;99.90
46340;DHT22;47273;49.274;8.708;2023-02-17T19:36:28;12.10;99.90
46340;DHT22;47273;49.274;8.708;2023-02-17T19:38:55;12.10;99.90
46340;DHT22;47273;49.274;8.708;2023-02-17T19:41:21;12.10;99.90
46340;DHT22;47273;49.274;8.708;2023-02-17T19:43:47;12.10;99.90
46340;DHT22;47273;49.274;8.708;2023-02-17T19:46:14;12.10;99.90
46340;DHT22;47273;49.274;8.708;2023-02-17T19:48:43;12.20;99.90
46340;DHT22;47273;49.274;8.708;2023-02-17T19:51:09;12.10;99.90
46340;DHT22;47273;49.274;8.708;2023-02-17T19:53:36;12.10;99.90
46340;DHT22;47273;49.274;8.708;2023-02-17T19:56:06;12.20;99.90
46340;DHT22;47273;49.274;8.708;2023-02-17T19:58:32;12.10;99.90
46340;DHT22;47273;49.274;8.708;2023-02-17T20:01:10;12.20;99.90
46340;DHT22;47273;49.274;8.708;2023-02-17T20:03:36;12.20;99.90
46340;DHT22;47273;49.274;8.708;2023-02-17T20:06:09;12.20;99.90
46340;DHT22;47273;49.274;8.708;2023-02-17T20:08:35;12.20;99.90
46340;DHT22;47273;49.274;8.708;2023-02-17T20:11:09;12.20;99.90
46340;DHT22;47273;49.274;8.708;2023-02-17T20:13:36;12.20;99.90
46340;DHT22;47273;49.274;8.708;2023-02-17T20:16:05;12.20;99.90
46340;DHT22;47273;49.274;8.708;2023-02-17T20:18:45;12.20;99.90
46340;DHT22;47273;49.274;8.708;2023-02-17T20:21:17;12.20;99.90
46340;DHT22;47273;49.274;8.708;2023-02-17T20:23:44;12.20;99.90
46340;DHT22;47273;49.274;8.708;2023-02-17T20:26:13;12.20;99.90
46340;DHT22;47273;49.274;8.708;2023-02-17T20:28:39;12.20;99.90
46340;DHT22;47273;49.274;8.708;2023-02-17T20:31:05;12.20;99.90
46340;DHT22;47273;49.274;8.708;2023-02-17T20:33:32;12.20;99.90
46340;DHT22;47273;49.274;8.708;2023-02-17T20:36:00;12.20;99.90
46340;DHT22;47273;49.274;8.708;2023-02-17T20:38:26;12.20;99.90
46340;DHT22;47273;49.274;8.708;2023-02-17T20:40:51;12.30;99.90
46340;DHT22;47273;49.274;8.708;2023-02-17T20:43:17;12.20;99.90
46340;DHT22;47273;49.274;8.708;2023-02-17T20:45:44;12.30;99.90
46340;DHT22;47273;49.274;8.708;2023-02-17T20:48:11;12.30;99.90
